Time;durP1;ratioP1;P1;durP2;ratioP2;P2;SDS_P1;SDS_P2;PMS_P1;PMS_P2;Temp;Humidity;BMP_temperature;BMP_pressure;BME280_temperature;BME280_humidity;BME280_pressure;Samples;Min_cycle;Max_cycle;Signal;HPM_P1;HPM_P2
2022/04/29 00:00:16;;;;;;;11.48;6.57;;;15.80;76.20;;;;;;5014571;28;20026;-64
2022/04/29 00:02:42;;;;;;;11.95;6.40;;;15.90;76.20;;;;;;5015072;28;20022;-63
2022/04/29 00:05:09;;;;;;;12.75;7.00;;;15.80;76.10;;;;;;5014853;28;20040;-63
2022/04/29 00:07:37;;;;;;;10.95;6.65;;;15.80;76.40;;;;;;5015061;28;20121;-64
2022/04/29 00:10:03;;;;;;;11.65;6.90;;;15.90;76.40;;;;;;5014534;28;20033;-63
2022/04/29 00:12:28;;;;;;;9.13;5.97;;;15.80;76.20;;;;;;5014896;28;20435;-62
2022/04/29 00:14:55;;;;;;;7.70;6.38;;;15.70;76.40;;;;;;5014247;28;20498;-63
2022/04/29 00:17:21;;;;;;;9.88;6.70;;;15.70;76.50;;;;;;5014921;28;20026;-64
2022/04/29 00:19:46;;;;;;;12.38;6.97;;;15.70;76.50;;;;;;5014294;28;20443;-63
2022/04/29 00:22:12;;;;;;;9.93;6.55;;;15.70;76.30;;;;;;5014797;28;20118;-64
2022/04/29 00:24:37;;;;;;;8.77;7.05;;;15.70;76.40;;;;;;5014399;28;20028;-61
2022/04/29 00:27:03;;;;;;;11.60;7.35;;;15.80;76.20;;;;;;5014360;28;20109;-64
2022/04/29 00:29:29;;;;;;;10.23;6.97;;;15.70;76.60;;;;;;5014283;28;20048;-64
2022/04/29 00:31:55;;;;;;;11.77;7.90;;;15.60;76.50;;;;;;5014336;28;20030;-64
2022/04/29 00:34:20;;;;;;;14.68;7.45;;;15.70;76.50;;;;;;5013809;28;20034;-63
2022/04/29 00:36:46;;;;;;;11.55;7.40;;;15.70;76.80;;;;;;5013765;28;20018;-63
2022/04/29 00:39:12;;;;;;;12.57;7.32;;;15.60;76.80;;;;;;5014186;28;20030;-63
2022/04/29 00:41:38;;;;;;;14.85;7.65;;;15.60;76.90;;;;;;5014167;28;20053;-64
2022/04/29 00:44:06;;;;;;;10.00;7.10;;;15.60;76.60;;;;;;5014271;28;20022;-64
2022/04/29 00:46:39;;;;;;;9.35;7.10;;;15.60;77.00;;;;;;5014241;28;20075;-63
2022/04/29 00:49:09;;;;;;;13.40;8.07;;;15.60;77.10;;;;;;5013961;28;20110;-63
2022/04/29 00:51:35;;;;;;;10.45;7.45;;;15.60;77.70;;;;;;5014036;28;20044;-65
2022/04/29 00:54:04;;;;;;;9.93;7.50;;;15.50;77.30;;;;;;5008863;28;20265;-64
2022/04/29 00:56:33;;;;;;;8.55;6.10;;;15.50;77.50;;;;;;5011495;28;20424;-63
2022/04/29 00:59:04;;;;;;;12.65;7.55;;;15.50;77.50;;;;;;5012595;28;20029;-64
2022/04/29 01:01:34;;;;;;;10.65;7.25;;;15.50;77.30;;;;;;5013842;28;20022;-64
2022/04/29 01:04:02;;;;;;;15.30;7.97;;;15.50;77.40;;;;;;5013863;28;20026;-62
2022/04/29 01:06:28;;;;;;;9.05;7.45;;;15.50;77.50;;;;;;5013624;28;20584;-64
2022/04/29 01:08:54;;;;;;;10.23;7.10;;;15.50;77.40;;;;;;5013434;28;20058;-64
2022/04/29 01:11:25;;;;;;;9.70;7.00;;;15.50;77.40;;;;;;5013718;28;20072;-64
2022/04/29 01:13:51;;;;;;;7.32;6.63;;;15.40;77.80;;;;;;5013450;28;20057;-64
2022/04/29 01:16:18;;;;;;;11.57;7.63;;;15.30;77.70;;;;;;5014017;28;20014;-64
2022/04/29 01:18:47;;;;;;;12.43;6.82;;;15.40;77.90;;;;;;5013555;28;20030;-65
2022/04/29 01:21:12;;;;;;;9.38;6.80;;;15.40;77.70;;;;;;5013446;28;20022;-64
2022/04/29 01:23:38;;;;;;;12.05;7.28;;;15.40;77.50;;;;;;5013853;28;20025;-64
2022/04/29 01:26:04;;;;;;;14.15;7.05;;;15.40;77.80;;;;;;5013327;28;20471;-64
2022/04/29 01:28:31;;;;;;;12.05;7.75;;;15.30;78.00;;;;;;5013459;28;20026;-64
2022/04/29 01:30:59;;;;;;;12.85;7.07;;;15.40;77.60;;;;;;5013454;28;20014;-64
2022/04/29 01:33:29;;;;;;;9.38;7.03;;;15.40;77.80;;;;;;5013379;28;20475;-64
2022/04/29 01:35:55;;;;;;;10.88;6.90;;;15.30;77.70;;;;;;5013595;28;20018;-64
2022/04/29 01:38:22;;;;;;;13.15;7.38;;;15.30;77.90;;;;;;5013531;28;20427;-63
2022/04/29 01:40:47;;;;;;;11.45;6.78;;;15.30;77.50;;;;;;5014810;28;20042;-64
2022/04/29 01:43:13;;;;;;;10.50;7.47;;;15.30;77.70;;;;;;5015343;28;20022;-63
2022/04/29 01:45:39;;;;;;;10.80;6.93;;;15.30;77.70;;;;;;5015242;28;20097;-60
2022/04/29 01:48:05;;;;;;;9.73;7.32;;;15.30;77.50;;;;;;5015273;28;20475;-64
2022/04/29 01:50:30;;;;;;;9.35;6.65;;;15.30;77.50;;;;;;5013893;28;20044;-62
2022/04/29 01:52:56;;;;;;;14.10;7.15;;;15.20;77.70;;;;;;5013046;28;20038;-60
2022/04/29 01:55:22;;;;;;;12.60;7.20;;;15.20;77.60;;;;;;5013045;28;20067;-62
2022/04/29 01:57:51;;;;;;;12.00;7.18;;;15.20;77.50;;;;;;5012824;28;20034;-61
2022/04/29 02:00:17;;;;;;;12.77;7.03;;;15.20;77.70;;;;;;5013215;28;20028;-63
2022/04/29 02:02:43;;;;;;;12.77;7.10;;;15.20;77.60;;;;;;5012935;28;20037;-63
2022/04/29 02:05:09;;;;;;;9.15;7.22;;;15.20;77.50;;;;;;5013194;28;20126;-59
2022/04/29 02:07:35;;;;;;;9.63;6.60;;;15.20;77.10;;;;;;5011713;28;20531;-62
2022/04/29 02:10:00;;;;;;;12.25;6.68;;;15.20;77.50;;;;;;5013019;28;20486;-62
2022/04/29 02:12:26;;;;;;;10.90;7.32;;;15.20;77.40;;;;;;5013093;28;20096;-62
2022/04/29 02:14:51;;;;;;;11.77;7.35;;;15.20;77.10;;;;;;5013021;28;20111;-61
2022/04/29 02:17:17;;;;;;;14.20;7.22;;;15.10;77.30;;;;;;5013029;28;20033;-61
2022/04/29 02:19:42;;;;;;;14.15;7.47;;;15.20;77.30;;;;;;5012945;28;20394;-62
2022/04/29 02:22:09;;;;;;;11.73;6.95;;;15.10;77.20;;;;;;5013010;28;20087;-56
2022/04/29 02:24:35;;;;;;;8.95;6.85;;;15.10;77.20;;;;;;5013073;28;20109;-62
2022/04/29 02:27:02;;;;;;;11.43;7.45;;;15.10;77.60;;;;;;5012504;28;20062;-62
2022/04/29 02:29:28;;;;;;;10.80;6.45;;;15.10;77.20;;;;;;5012535;28;20484;-62
2022/04/29 02:31:54;;;;;;;8.93;6.90;;;15.10;77.50;;;;;;5012759;28;20018;-62
2022/04/29 02:34:20;;;;;;;10.32;7.18;;;15.10;77.50;;;;;;5012872;28;20030;-62
2022/04/29 02:36:47;;;;;;;14.57;8.20;;;15.00;77.40;;;;;;5012922;28;20029;-62
2022/04/29 02:39:13;;;;;;;10.98;6.75;;;15.10;77.20;;;;;;5012627;28;20037;-56
2022/04/29 02:41:38;;;;;;;11.50;7.15;;;15.00;77.20;;;;;;5012679;28;20054;-62
2022/04/29 02:44:04;;;;;;;14.05;7.40;;;15.00;77.30;;;;;;5011470;28;20100;-63
2022/04/29 02:46:30;;;;;;;12.70;7.80;;;15.00;77.50;;;;;;5012888;28;20387;-61
2022/04/29 02:48:55;;;;;;;12.65;6.85;;;15.00;77.40;;;;;;5012459;28;20570;-62
2022/04/29 02:51:21;;;;;;;8.52;6.70;;;15.00;77.40;;;;;;5012943;28;20037;-61
2022/04/29 02:53:46;;;;;;;9.07;6.88;;;15.00;77.60;;;;;;5012329;28;20034;-62
2022/04/29 02:56:12;;;;;;;10.07;6.82;;;15.00;77.30;;;;;;5012782;28;20041;-62
2022/04/29 02:58:38;;;;;;;9.95;7.80;;;15.00;77.30;;;;;;5013663;28;20105;-57
2022/04/29 03:01:03;;;;;;;12.38;7.82;;;15.00;77.50;;;;;;5016081;28;20014;-59
2022/04/29 03:03:29;;;;;;;10.43;6.82;;;14.90;77.30;;;;;;5016057;28;20030;-62
2022/04/29 03:05:55;;;;;;;9.50;6.90;;;14.90;77.60;;;;;;5016219;28;20435;-60
2022/04/29 03:08:21;;;;;;;12.75;6.65;;;14.90;77.30;;;;;;5015529;28;20494;-62
2022/04/29 03:10:49;;;;;;;9.95;6.82;;;14.90;77.30;;;;;;5015924;28;20026;-60
2022/04/29 03:13:15;;;;;;;11.02;6.38;;;14.90;77.60;;;;;;5015610;28;20049;-63
2022/04/29 03:15:41;;;;;;;9.77;6.93;;;14.80;77.70;;;;;;5015934;28;20026;-63
2022/04/29 03:18:20;;;;;;;11.50;6.95;;;14.90;77.60;;;;;;5015635;28;20163;-62
2022/04/29 03:20:48;;;;;;;11.38;7.50;;;14.80;77.80;;;;;;5016085;28;20060;-61
2022/04/29 03:23:14;;;;;;;9.82;7.47;;;14.80;77.70;;;;;;5015458;28;20022;-63
2022/04/29 03:25:40;;;;;;;12.18;7.53;;;14.80;77.20;;;;;;5015690;28;20064;-63
2022/04/29 03:28:06;;;;;;;10.57;8.05;;;14.80;77.10;;;;;;5015486;28;20057;-62
2022/04/29 03:30:32;;;;;;;14.00;8.18;;;14.80;76.90;;;;;;5015461;28;20073;-62
2022/04/29 03:33:00;;;;;;;12.75;7.72;;;14.80;77.10;;;;;;5015224;28;20037;-62
2022/04/29 03:35:26;;;;;;;11.82;7.30;;;14.70;77.30;;;;;;5015521;28;20044;-62
2022/04/29 03:37:53;;;;;;;10.32;7.50;;;14.70;77.50;;;;;;5015301;28;20113;-61
2022/04/29 03:40:21;;;;;;;12.82;8.10;;;14.70;77.80;;;;;;5015151;28;20361;-63
2022/04/29 03:42:48;;;;;;;10.73;7.47;;;14.70;77.40;;;;;;5015261;28;20017;-62
2022/04/29 03:45:13;;;;;;;12.82;8.10;;;14.60;77.80;;;;;;5015363;28;20025;-62
2022/04/29 03:47:39;;;;;;;10.38;8.05;;;14.60;77.60;;;;;;5015486;28;20029;-62
2022/04/29 03:50:05;;;;;;;12.38;8.18;;;14.60;77.90;;;;;;5015107;28;20026;-63
2022/04/29 03:52:31;;;;;;;14.70;8.38;;;14.60;77.70;;;;;;5014723;28;20522;-62
2022/04/29 03:54:57;;;;;;;12.70;8.15;;;14.50;78.00;;;;;;5014819;28;20034;-61
2022/04/29 03:57:22;;;;;;;11.35;8.30;;;14.50;78.30;;;;;;5015089;28;20037;-62
2022/04/29 03:59:49;;;;;;;11.82;8.43;;;14.50;78.00;;;;;;5014827;28;20022;-62
2022/04/29 04:02:14;;;;;;;14.55;7.93;;;14.50;78.00;;;;;;5014936;28;20110;-63
2022/04/29 04:04:40;;;;;;;13.00;8.10;;;14.50;78.10;;;;;;5014987;28;20046;-63
2022/04/29 04:07:05;;;;;;;13.65;7.80;;;14.50;78.20;;;;;;5014468;28;20414;-63
2022/04/29 04:09:31;;;;;;;14.15;8.00;;;14.40;78.50;;;;;;5014496;28;20084;-62
2022/04/29 04:11:56;;;;;;;13.13;8.23;;;14.50;79.10;;;;;;5014781;28;20033;-63
2022/04/29 04:14:22;;;;;;;9.23;8.15;;;14.40;78.40;;;;;;5014622;28;20030;-62
2022/04/29 04:16:48;;;;;;;11.63;7.57;;;14.40;78.40;;;;;;5014581;28;20371;-63
2022/04/29 04:19:14;;;;;;;11.52;8.10;;;14.40;78.50;;;;;;5014613;28;20025;-63
2022/04/29 04:21:39;;;;;;;13.60;8.50;;;14.40;78.50;;;;;;5014273;28;20068;-63
2022/04/29 04:24:06;;;;;;;11.38;7.95;;;14.30;78.60;;;;;;5014501;28;20021;-63
2022/04/29 04:26:32;;;;;;;10.98;7.75;;;14.30;78.70;;;;;;5014068;28;20033;-62
2022/04/29 04:28:58;;;;;;;13.75;9.00;;;14.30;78.40;;;;;;5013221;28;20483;-63
2022/04/29 04:31:24;;;;;;;14.65;9.38;;;14.20;78.60;;;;;;5014052;28;20046;-62
2022/04/29 04:33:51;;;;;;;8.57;7.25;;;14.30;78.40;;;;;;5014447;28;20096;-63
2022/04/29 04:36:17;;;;;;;12.77;7.78;;;14.20;78.60;;;;;;5013867;28;20097;-62
2022/04/29 04:38:45;;;;;;;13.73;8.45;;;14.20;78.90;;;;;;5014329;28;20041;-62
2022/04/29 04:41:13;;;;;;;11.68;7.60;;;14.20;78.70;;;;;;5014100;28;20423;-63
2022/04/29 04:43:38;;;;;;;11.05;8.70;;;14.20;78.90;;;;;;5014148;28;20022;-62
2022/04/29 04:46:06;;;;;;;13.20;8.45;;;14.20;78.60;;;;;;5013820;28;20478;-63
2022/04/29 04:48:31;;;;;;;12.45;8.18;;;14.20;78.80;;;;;;5014121;28;20382;-63
2022/04/29 04:51:01;;;;;;;15.98;8.10;;;14.20;78.60;;;;;;5013596;28;20097;-63
2022/04/29 04:53:27;;;;;;;14.20;7.93;;;14.20;78.50;;;;;;5014067;28;20069;-62
2022/04/29 04:55:53;;;;;;;11.57;8.65;;;14.20;78.40;;;;;;5014016;28;20026;-62
2022/04/29 04:58:18;;;;;;;14.80;9.15;;;14.20;78.60;;;;;;5013842;28;20034;-63
2022/04/29 05:00:44;;;;;;;15.45;8.18;;;14.20;78.70;;;;;;5011212;28;20430;-63
2022/04/29 05:03:09;;;;;;;14.38;8.82;;;14.10;78.60;;;;;;5006317;28;20034;-62
2022/04/29 05:05:35;;;;;;;13.55;8.45;;;14.20;78.80;;;;;;4991389;28;20030;-61
2022/04/29 05:08:01;;;;;;;14.40;9.10;;;14.20;78.70;;;;;;5015896;28;20024;-60
2022/04/29 05:10:26;;;;;;;12.75;9.40;;;14.10;79.00;;;;;;5013648;28;20034;-62
2022/04/29 05:12:52;;;;;;;15.30;8.52;;;14.00;78.90;;;;;;5013561;28;20088;-63
2022/04/29 05:15:17;;;;;;;13.60;9.52;;;14.10;79.10;;;;;;5013775;28;20014;-63
2022/04/29 05:17:43;;;;;;;15.65;9.90;;;14.00;79.00;;;;;;5008162;28;20472;-55
2022/04/29 05:20:13;;;;;;;16.75;9.35;;;14.10;79.00;;;;;;5009458;28;20084;-60
2022/04/29 05:22:39;;;;;;;13.07;8.73;;;14.20;79.00;;;;;;5010155;28;20026;-62
2022/04/29 05:25:06;;;;;;;12.13;8.88;;;14.10;78.90;;;;;;5010161;28;20032;-58
2022/04/29 05:27:32;;;;;;;16.60;8.85;;;14.10;79.10;;;;;;5008732;28;20077;-62
2022/04/29 05:29:58;;;;;;;11.93;9.20;;;14.10;78.90;;;;;;5009651;28;20022;-58
2022/04/29 05:32:28;;;;;;;13.80;8.77;;;14.00;79.00;;;;;;5004560;28;20379;-59
2022/04/29 05:34:55;;;;;;;15.13;9.40;;;14.20;78.70;;;;;;5007705;28;20114;-61
2022/04/29 05:37:21;;;;;;;12.75;9.13;;;14.10;79.00;;;;;;5011365;28;20021;-58
2022/04/29 05:42:31;;;;;;;11.73;8.93;;;14.10;79.10;;;;;;5002113;28;20129;-56
2022/04/29 05:44:56;;;;;;;14.40;8.32;;;14.00;78.90;;;;;;5002230;28;20427;-57
2022/04/29 05:47:22;;;;;;;11.32;8.20;;;14.10;79.00;;;;;;5006297;28;20493;-57
2022/04/29 05:49:47;;;;;;;15.43;10.15;;;14.00;79.20;;;;;;5016046;28;20029;-60
2022/04/29 05:52:13;;;;;;;15.80;10.48;;;14.00;78.50;;;;;;5014356;28;20113;-61
2022/04/29 05:54:39;;;;;;;17.02;11.43;;;14.00;78.40;;;;;;5009846;28;20399;-58
2022/04/29 05:57:05;;;;;;;11.45;8.38;;;13.90;78.50;;;;;;5012097;28;20594;-58
2022/04/29 05:59:31;;;;;;;14.45;8.88;;;14.00;79.00;;;;;;5009557;28;20034;-63
2022/04/29 06:01:58;;;;;;;14.20;9.90;;;14.00;78.60;;;;;;5008847;28;20101;-57
2022/04/29 06:04:24;;;;;;;19.80;10.35;;;14.00;78.60;;;;;;5007164;28;20490;-58
2022/04/29 06:06:50;;;;;;;13.45;10.57;;;14.00;78.30;;;;;;5011295;28;20033;-58
2022/04/29 06:09:15;;;;;;;13.20;9.98;;;14.00;78.10;;;;;;5001399;28;20039;-59
2022/04/29 06:11:42;;;;;;;16.50;10.77;;;14.00;77.70;;;;;;5012502;28;20029;-56
2022/04/29 06:14:07;;;;;;;14.82;11.30;;;14.00;77.70;;;;;;5011557;28;20037;-62
2022/04/29 06:16:33;;;;;;;19.35;11.10;;;14.00;77.70;;;;;;5011035;28;20497;-63
2022/04/29 06:18:59;;;;;;;15.75;10.50;;;14.10;78.00;;;;;;4998249;28;20038;-57
2022/04/29 06:21:25;;;;;;;13.75;10.75;;;14.10;77.90;;;;;;5008536;28;20553;-59
2022/04/29 06:23:51;;;;;;;15.18;10.98;;;14.10;77.50;;;;;;5011756;28;20026;-61
2022/04/29 06:26:16;;;;;;;19.85;11.93;;;14.10;77.60;;;;;;4995947;28;20030;-60
2022/04/29 06:28:42;;;;;;;23.52;11.45;;;14.10;77.40;;;;;;5012753;28;20038;-65
2022/04/29 06:31:08;;;;;;;20.40;11.57;;;14.00;77.80;;;;;;5011481;28;20359;-65
2022/04/29 06:33:35;;;;;;;14.27;10.95;;;14.10;77.20;;;;;;5014512;28;20192;-60
2022/04/29 06:36:01;;;;;;;13.48;10.40;;;14.10;77.50;;;;;;5013718;28;20026;-63
2022/04/29 06:38:27;;;;;;;17.80;9.75;;;14.10;78.00;;;;;;5018499;28;20028;-54
2022/04/29 06:40:55;;;;;;;19.27;10.32;;;14.10;78.10;;;;;;5018067;28;20026;-64
2022/04/29 06:43:21;;;;;;;18.48;10.63;;;14.10;78.10;;;;;;5019822;28;20083;-59
2022/04/29 06:45:46;;;;;;;15.35;10.05;;;14.10;78.20;;;;;;5004466;28;20404;-60
2022/04/29 06:48:12;;;;;;;17.55;9.95;;;14.10;78.00;;;;;;5005715;28;20546;-63
2022/04/29 06:50:37;;;;;;;16.85;11.30;;;14.00;77.90;;;;;;5014665;28;20026;-61
2022/04/29 06:53:03;;;;;;;15.77;9.75;;;14.00;77.90;;;;;;5009767;28;20365;-62
2022/04/29 06:55:29;;;;;;;17.02;10.27;;;14.10;77.90;;;;;;5011312;28;20399;-62
2022/04/29 06:57:54;;;;;;;13.10;10.93;;;14.00;77.90;;;;;;5013682;28;20026;-61
2022/04/29 07:00:20;;;;;;;19.38;11.13;;;14.00;78.00;;;;;;4996973;28;20033;-61
2022/04/29 07:02:46;;;;;;;18.17;10.95;;;14.00;78.10;;;;;;4996204;28;20483;-61
2022/04/29 07:05:12;;;;;;;17.17;10.85;;;14.00;78.10;;;;;;5001119;28;20034;-58
2022/04/29 07:07:38;;;;;;;18.45;11.43;;;14.00;77.90;;;;;;5019982;28;20014;-58
2022/04/29 07:10:04;;;;;;;17.02;11.25;;;14.00;77.70;;;;;;5005723;28;20027;-53
2022/04/29 07:12:34;;;;;;;16.75;11.10;;;14.00;78.10;;;;;;5028247;28;20050;-57
2022/04/29 07:15:00;;;;;;;17.05;9.90;;;14.00;78.10;;;;;;5022805;28;20025;-56
2022/04/29 07:17:25;;;;;;;12.45;10.52;;;14.00;77.90;;;;;;5022710;28;20034;-57
2022/04/29 07:19:52;;;;;;;27.40;12.90;;;14.10;77.60;;;;;;5028735;28;20031;-55
2022/04/29 07:22:18;;;;;;;16.25;10.90;;;14.00;77.60;;;;;;5027121;28;20091;-61
2022/04/29 07:24:44;;;;;;;15.68;11.30;;;14.00;77.50;;;;;;5027678;28;20022;-55
2022/04/29 07:27:11;;;;;;;18.65;10.73;;;14.00;77.50;;;;;;5024813;28;20072;-56
2022/04/29 07:29:37;;;;;;;15.75;11.23;;;14.10;77.40;;;;;;5020080;28;20422;-58
2022/04/29 07:32:03;;;;;;;13.77;9.82;;;14.00;78.70;;;;;;5000398;28;20031;-56
2022/04/29 07:42:41;;;;;;;14.32;12.07;;;14.00;78.10;;;;;;5027609;28;20045;-58
2022/04/29 07:45:07;;;;;;;18.58;11.68;;;14.10;78.60;;;;;;5022957;28;20018;-58
2022/04/29 07:47:36;;;;;;;18.95;11.65;;;14.00;79.50;;;;;;5027627;28;20034;-58
2022/04/29 07:50:02;;;;;;;18.23;10.65;;;14.00;81.40;;;;;;5017541;28;20498;-58
2022/04/29 07:52:28;;;;;;;20.50;12.50;;;14.00;82.60;;;;;;5029132;28;20021;-58
2022/04/29 07:54:53;;;;;;;16.92;12.45;;;14.10;84.30;;;;;;5021610;28;20541;-57
2022/04/29 07:57:19;;;;;;;17.45;11.57;;;14.20;80.30;;;;;;5022639;28;20066;-58
2022/04/29 07:59:45;;;;;;;21.05;11.98;;;14.10;80.00;;;;;;5028257;28;20017;-57
2022/04/29 08:02:10;;;;;;;17.55;11.52;;;14.20;80.00;;;;;;5017053;28;20045;-57
2022/04/29 08:04:36;;;;;;;16.45;11.38;;;14.20;79.60;;;;;;5027662;28;20021;-55
2022/04/29 08:07:02;;;;;;;17.83;11.63;;;14.20;79.80;;;;;;5021906;28;20057;-58
2022/04/29 08:09:28;;;;;;;18.15;11.52;;;14.20;79.10;;;;;;5020935;28;20430;-58
2022/04/29 08:11:53;;;;;;;16.30;12.63;;;14.20;78.60;;;;;;5029107;28;20033;-58
2022/04/29 08:14:20;;;;;;;13.43;10.63;;;14.20;78.70;;;;;;5016587;28;20112;-57
2022/04/29 08:16:46;;;;;;;18.67;11.70;;;14.20;78.70;;;;;;5026664;28;20411;-57
2022/04/29 08:19:12;;;;;;;15.48;11.85;;;14.10;79.70;;;;;;5024152;28;20474;-56
2022/04/29 08:21:37;;;;;;;22.00;13.57;;;14.10;79.10;;;;;;5019182;28;20022;-57
2022/04/29 08:24:03;;;;;;;28.67;12.25;;;14.10;78.60;;;;;;5029242;28;20033;-55
2022/04/29 08:26:29;;;;;;;26.65;13.30;;;14.20;79.20;;;;;;5017807;28;20545;-57
2022/04/29 08:28:55;;;;;;;20.67;12.57;;;14.20;78.70;;;;;;5024719;28;20030;-57
2022/04/29 08:31:21;;;;;;;16.23;12.27;;;14.20;77.80;;;;;;5024990;28;20036;-57
2022/04/29 08:33:47;;;;;;;21.42;12.82;;;14.20;77.60;;;;;;5017022;28;20030;-58
2022/04/29 08:36:12;;;;;;;18.73;13.32;;;14.20;78.10;;;;;;5019759;28;20026;-58
2022/04/29 08:38:38;;;;;;;17.85;12.80;;;14.20;77.70;;;;;;5027249;28;20026;-58
2022/04/29 08:41:06;;;;;;;21.25;14.05;;;14.20;77.80;;;;;;5022240;28;20040;-57
2022/04/29 08:43:32;;;;;;;16.88;13.77;;;14.20;78.00;;;;;;5019091;28;20215;-58
2022/04/29 08:46:00;;;;;;;18.00;13.05;;;14.20;78.00;;;;;;5013457;28;20096;-58
2022/04/29 08:48:28;;;;;;;18.95;13.07;;;14.20;78.00;;;;;;5013218;28;20026;-57
2022/04/29 08:50:57;;;;;;;21.73;14.20;;;14.20;77.90;;;;;;5013067;28;20018;-58
2022/04/29 08:53:22;;;;;;;19.75;13.35;;;14.20;78.00;;;;;;5012681;28;20480;-57
2022/04/29 08:58:37;;;;;;;23.73;12.90;;;14.30;78.30;;;;;;5013335;28;20543;-57
2022/04/29 09:01:13;;;;;;;19.10;13.60;;;14.20;78.00;;;;;;5012873;28;20022;-57
2022/04/29 09:03:42;;;;;;;20.05;13.82;;;14.20;78.10;;;;;;5012897;28;20033;-58
2022/04/29 09:06:08;;;;;;;21.98;14.63;;;14.30;78.00;;;;;;5014489;28;20049;-58
2022/04/29 09:08:41;;;;;;;21.13;13.85;;;14.30;78.00;;;;;;5014697;28;20022;-60
2022/04/29 09:11:08;;;;;;;21.70;13.48;;;14.30;78.00;;;;;;5014543;28;20030;-58
2022/04/29 09:13:37;;;;;;;17.42;13.55;;;14.30;78.10;;;;;;5013078;28;20498;-60
2022/04/29 09:16:05;;;;;;;18.67;13.00;;;14.40;78.20;;;;;;5012924;28;20033;-60
2022/04/29 09:18:39;;;;;;;18.00;13.25;;;14.30;78.40;;;;;;5013148;28;20022;-59
2022/04/29 09:21:05;;;;;;;20.35;14.05;;;14.40;78.10;;;;;;5012800;28;20075;-61
2022/04/29 09:23:31;;;;;;;21.85;14.82;;;14.40;78.30;;;;;;5012147;28;20034;-61
2022/04/29 09:26:01;;;;;;;20.27;14.35;;;14.40;78.80;;;;;;5012168;28;20026;-61
2022/04/29 09:28:27;;;;;;;19.60;14.88;;;14.40;78.60;;;;;;5012443;28;20028;-62
2022/04/29 09:30:56;;;;;;;20.90;14.80;;;14.50;78.20;;;;;;5012955;28;20042;-59
2022/04/29 09:33:25;;;;;;;20.25;14.57;;;14.40;78.50;;;;;;5011989;28;20040;-62
2022/04/29 09:35:51;;;;;;;17.92;12.77;;;14.50;78.00;;;;;;5012776;28;20025;-61
2022/04/29 09:41:03;;;;;;;22.50;14.82;;;14.50;78.60;;;;;;5012511;28;20394;-61
2022/04/29 09:43:42;;;;;;;16.92;13.38;;;14.60;79.10;;;;;;5011830;28;20442;-61
2022/04/29 09:46:28;;;;;;;21.85;13.77;;;14.60;78.50;;;;;;5013059;28;20054;-62
2022/04/29 09:49:06;;;;;;;17.60;13.15;;;14.70;77.70;;;;;;5012057;28;20080;-62
2022/04/29 09:51:42;;;;;;;19.73;14.25;;;14.70;77.90;;;;;;5013249;28;20475;-62
2022/04/29 09:54:14;;;;;;;23.20;15.30;;;14.70;77.80;;;;;;5011426;28;20034;-62
2022/04/29 09:56:41;;;;;;;20.40;14.55;;;14.70;77.40;;;;;;5010976;28;20044;-61
2022/04/29 09:59:08;;;;;;;19.30;14.95;;;14.70;77.80;;;;;;5011970;28;20029;-59
2022/04/29 10:01:33;;;;;;;20.95;14.35;;;14.70;77.40;;;;;;5012693;28;20022;-61
2022/04/29 10:04:00;;;;;;;18.70;14.82;;;14.80;77.50;;;;;;5012503;28;20109;-61
2022/04/29 10:06:27;;;;;;;18.40;13.93;;;14.80;77.30;;;;;;5012543;28;20022;-61
2022/04/29 10:08:56;;;;;;;15.98;14.32;;;14.80;77.50;;;;;;5014650;28;20467;-58
2022/04/29 10:11:25;;;;;;;21.13;14.43;;;14.80;77.60;;;;;;5016190;28;20080;-57
2022/04/29 10:13:51;;;;;;;20.00;14.32;;;14.90;77.30;;;;;;5016261;28;20037;-59
2022/04/29 10:16:18;;;;;;;21.83;14.25;;;14.90;77.10;;;;;;5016361;28;20534;-58
2022/04/29 10:21:38;;;;;;;19.88;15.05;;;15.00;77.40;;;;;;5016529;28;20514;-58
2022/04/29 10:24:04;;;;;;;21.63;15.60;;;15.00;76.90;;;;;;5015760;28;20072;-60
2022/04/29 10:26:30;;;;;;;19.67;15.57;;;15.10;76.80;;;;;;5016361;28;20034;-59
2022/04/29 10:28:56;;;;;;;17.00;14.60;;;15.10;77.00;;;;;;5014972;28;20026;-58
2022/04/29 10:31:23;;;;;;;15.80;14.23;;;15.10;76.80;;;;;;5016164;28;20018;-59
2022/04/29 10:33:49;;;;;;;21.30;14.50;;;15.20;77.00;;;;;;5015459;28;20037;-58
2022/04/29 10:36:16;;;;;;;20.60;14.30;;;15.20;77.00;;;;;;5016814;28;20101;-59
2022/04/29 10:38:48;;;;;;;20.52;14.80;;;15.20;76.40;;;;;;5030740;28;20104;-61
2022/04/29 10:41:18;;;;;;;22.30;13.52;;;15.20;76.10;;;;;;5021440;28;20509;-58
2022/04/29 10:43:55;;;;;;;20.95;15.30;;;15.30;76.30;;;;;;5025325;28;20069;-57
2022/04/29 10:46:36;;;;;;;18.75;13.95;;;15.30;76.60;;;;;;5030576;28;20028;-61
2022/04/29 10:49:28;;;;;;;23.60;14.07;;;15.30;76.60;;;;;;5003106;28;20014;-57
2022/04/29 10:52:03;;;;;;;21.55;14.80;;;15.40;76.00;;;;;;5023857;28;20052;-61
2022/04/29 10:54:34;;;;;;;19.83;14.68;;;15.40;76.30;;;;;;5022262;28;20045;-60
2022/04/29 10:57:12;;;;;;;23.17;14.05;;;15.50;76.10;;;;;;5003035;28;20025;-59
2022/04/29 10:59:52;;;;;;;18.27;14.02;;;15.50;76.10;;;;;;5024300;28;20037;-61
2022/04/29 11:02:32;;;;;;;20.88;15.15;;;15.50;75.70;;;;;;5029758;28;20079;-58
2022/04/29 11:04:59;;;;;;;19.45;14.90;;;15.50;75.40;;;;;;5002360;28;20022;-57
2022/04/29 11:07:45;;;;;;;21.02;14.85;;;15.60;75.70;;;;;;5026280;28;20030;-58
2022/04/29 11:10:21;;;;;;;19.10;14.43;;;15.60;75.40;;;;;;5028456;28;20391;-58
2022/04/29 11:13:03;;;;;;;21.75;14.73;;;15.60;75.80;;;;;;5033680;28;20475;-58
2022/04/29 11:15:45;;;;;;;19.80;15.20;;;15.60;75.50;;;;;;5035079;28;20029;-58
2022/04/29 11:18:25;;;;;;;21.45;16.15;;;15.70;75.60;;;;;;4994620;28;20032;-61
2022/04/29 11:20:56;;;;;;;19.23;14.32;;;15.70;75.30;;;;;;4994566;28;20058;-58
2022/04/29 11:26:11;;;;;;;21.27;14.23;;;15.80;75.20;;;;;;4995431;28;20049;-59
2022/04/29 11:28:37;;;;;;;19.73;13.98;;;15.80;75.00;;;;;;4994646;28;20023;-58
2022/04/29 11:31:05;;;;;;;20.27;13.98;;;15.80;74.80;;;;;;4995377;28;20474;-58
2022/04/29 11:33:31;;;;;;;20.27;14.20;;;15.90;75.00;;;;;;4995252;28;20038;-58
2022/04/29 11:36:11;;;;;;;21.13;15.43;;;15.90;75.10;;;;;;4995194;28;20109;-59
2022/04/29 11:38:41;;;;;;;21.70;17.25;;;16.00;74.90;;;;;;4994514;28;20026;-58
2022/04/29 11:41:07;;;;;;;21.40;17.38;;;16.00;75.30;;;;;;4995135;28;20019;-57
2022/04/29 11:43:33;;;;;;;21.85;16.85;;;16.00;74.70;;;;;;4995062;28;20538;-58
2022/04/29 11:46:02;;;;;;;20.55;17.67;;;16.00;74.80;;;;;;4994985;28;20110;-58
2022/04/29 11:48:27;;;;;;;24.52;19.00;;;16.10;74.60;;;;;;4994549;28;20029;-59
2022/04/29 11:50:56;;;;;;;23.08;19.30;;;16.10;74.40;;;;;;4994584;28;20023;-59
2022/04/29 11:53:22;;;;;;;21.00;18.08;;;16.10;74.70;;;;;;4995055;28;20027;-58
2022/04/29 11:55:51;;;;;;;22.30;18.80;;;16.20;74.40;;;;;;5013193;28;20032;-58
2022/04/29 11:58:17;;;;;;;23.83;18.95;;;16.20;74.30;;;;;;5013792;28;20029;-57
2022/04/29 12:00:49;;;;;;;25.20;17.85;;;16.20;73.40;;;;;;5014318;28;20053;-58
2022/04/29 12:03:19;;;;;;;24.30;17.00;;;16.20;73.60;;;;;;5014569;28;20551;-59
2022/04/29 12:05:45;;;;;;;23.55;16.88;;;16.20;73.80;;;;;;5014002;28;20037;-59
2022/04/29 12:08:12;;;;;;;22.60;16.88;;;16.30;73.70;;;;;;5013187;28;20379;-59
2022/04/29 12:10:37;;;;;;;25.33;17.65;;;16.30;73.70;;;;;;5014242;28;20104;-58
2022/04/29 12:13:04;;;;;;;22.58;17.23;;;16.30;73.00;;;;;;5014132;28;20435;-58
2022/04/29 12:15:33;;;;;;;20.45;16.58;;;16.40;73.10;;;;;;5014202;28;20021;-59
2022/04/29 12:18:00;;;;;;;29.52;18.75;;;16.40;73.10;;;;;;5013229;28;20511;-57
2022/04/29 12:20:27;;;;;;;22.88;17.42;;;16.40;72.90;;;;;;5013523;28;20072;-58
2022/04/29 12:22:53;;;;;;;22.00;16.85;;;16.40;72.90;;;;;;5014115;28;20084;-58
2022/04/29 12:25:23;;;;;;;20.42;16.52;;;16.40;73.10;;;;;;5013548;28;20124;-58
2022/04/29 12:28:26;;;;;;;21.45;17.40;;;16.50;73.30;;;;;;5013012;28;20373;-57
2022/04/29 12:36:49;;;;;;;27.30;15.05;;;16.50;73.00;;;;;;5013611;28;20061;-59
2022/04/29 12:39:18;;;;;;;26.40;16.75;;;16.50;73.30;;;;;;5013208;28;20022;-60
2022/04/29 12:41:55;;;;;;;24.25;16.77;;;16.50;73.20;;;;;;5013640;28;20022;-59
2022/04/29 12:47:24;;;;;;;27.45;17.38;;;16.60;72.60;;;;;;5013733;28;20510;-59
2022/04/29 12:49:51;;;;;;;22.17;16.65;;;16.60;72.80;;;;;;5014024;28;20454;-62
2022/04/29 12:52:17;;;;;;;23.85;16.48;;;16.60;72.90;;;;;;5014124;28;20026;-58
2022/04/29 12:54:42;;;;;;;23.10;16.33;;;16.70;73.10;;;;;;5014027;28;20045;-58
2022/04/29 12:57:09;;;;;;;21.02;15.80;;;16.70;72.90;;;;;;4999595;28;20089;-58
2022/04/29 12:59:37;;;;;;;20.45;13.57;;;16.80;73.10;;;;;;5014240;28;20105;-58
2022/04/29 13:02:07;;;;;;;20.70;16.77;;;16.70;73.00;;;;;;5013817;28;20087;-58
2022/04/29 13:04:32;;;;;;;22.30;18.35;;;16.80;72.10;;;;;;5012968;28;20097;-61